sensor_id;sensor_type;location;lat;lon;timestamp;P1;durP1;ratioP1;P2;durP2;ratioP2
15102;SDS011;7652;53.584;9.998;2023-02-22T00:00:50;17.63;;;9.97;;
15102;SDS011;7652;53.584;9.998;2023-02-22T00:03:53;18.17;;;10.70;;
15102;SDS011;7652;53.584;9.998;2023-02-22T00:06:56;18.23;;;10.30;;
15102;SDS011;7652;53.584;9.998;2023-02-22T00:10:03;19.67;;;10.13;;
15102;SDS011;7652;53.584;9.998;2023-02-22T00:13:11;19.27;;;10.17;;
15102;SDS011;7652;53.584;9.998;2023-02-22T00:16:15;21.43;;;10.40;;
15102;SDS011;7652;53.584;9.998;2023-02-22T00:19:20;17.07;;;10.53;;
15102;SDS011;7652;53.584;9.998;2023-02-22T00:22:23;17.83;;;9.97;;
15102;SDS011;7652;53.584;9.998;2023-02-22T00:25:27;19.43;;;11.03;;
15102;SDS011;7652;53.584;9.998;2023-02-22T00:28:30;21.10;;;10.93;;
15102;SDS011;7652;53.584;9.998;2023-02-22T00:31:35;19.67;;;10.97;;
15102;SDS011;7652;53.584;9.998;2023-02-22T00:34:39;20.07;;;10.53;;
15102;SDS011;7652;53.584;9.998;2023-02-22T00:37:46;22.83;;;11.97;;
15102;SDS011;7652;53.584;9.998;2023-02-22T00:40:50;21.97;;;11.23;;
15102;SDS011;7652;53.584;9.998;2023-02-22T00:43:53;23.00;;;11.77;;
15102;SDS011;7652;53.584;9.998;2023-02-22T00:46:56;24.63;;;11.63;;
15102;SDS011;7652;53.584;9.998;2023-02-22T00:49:59;23.53;;;11.57;;
15102;SDS011;7652;53.584;9.998;2023-02-22T00:53:03;28.00;;;12.13;;
15102;SDS011;7652;53.584;9.998;2023-02-22T00:56:08;29.17;;;12.07;;
15102;SDS011;7652;53.584;9.998;2023-02-22T00:59:12;25.90;;;12.03;;
15102;SDS011;7652;53.584;9.998;2023-02-22T01:02:15;24.50;;;12.47;;
15102;SDS011;7652;53.584;9.998;2023-02-22T01:05:19;26.13;;;12.50;;
15102;SDS011;7652;53.584;9.998;2023-02-22T01:08:24;25.67;;;13.17;;
15102;SDS011;7652;53.584;9.998;2023-02-22T01:11:31;24.77;;;12.17;;
15102;SDS011;7652;53.584;9.998;2023-02-22T01:14:34;26.23;;;13.10;;
15102;SDS011;7652;53.584;9.998;2023-02-22T01:17:37;25.90;;;12.80;;
15102;SDS011;7652;53.584;9.998;2023-02-22T01:20:41;26.00;;;12.90;;
15102;SDS011;7652;53.584;9.998;2023-02-22T01:23:48;29.00;;;12.57;;
15102;SDS011;7652;53.584;9.998;2023-02-22T01:26:53;27.90;;;13.00;;
15102;SDS011;7652;53.584;9.998;2023-02-22T01:29:56;24.53;;;12.90;;
15102;SDS011;7652;53.584;9.998;2023-02-22T01:32:59;26.13;;;12.27;;
15102;SDS011;7652;53.584;9.998;2023-02-22T01:36:03;27.63;;;14.87;;
15102;SDS011;7652;53.584;9.998;2023-02-22T01:39:11;22.40;;;12.37;;
15102;SDS011;7652;53.584;9.998;2023-02-22T01:42:16;25.97;;;12.30;;
15102;SDS011;7652;53.584;9.998;2023-02-22T01:45:39;27.10;;;14.00;;
15102;SDS011;7652;53.584;9.998;2023-02-22T01:48:46;29.20;;;13.83;;
15102;SDS011;7652;53.584;9.998;2023-02-22T01:51:53;35.03;;;14.33;;
15102;SDS011;7652;53.584;9.998;2023-02-22T01:54:59;27.93;;;12.60;;
15102;SDS011;7652;53.584;9.998;2023-02-22T01:58:03;29.50;;;13.63;;
15102;SDS011;7652;53.584;9.998;2023-02-22T02:01:07;29.10;;;12.50;;
15102;SDS011;7652;53.584;9.998;2023-02-22T02:04:14;26.73;;;12.90;;
15102;SDS011;7652;53.584;9.998;2023-02-22T02:07:21;28.30;;;13.07;;
15102;SDS011;7652;53.584;9.998;2023-02-22T02:10:24;34.97;;;13.37;;
15102;SDS011;7652;53.584;9.998;2023-02-22T02:13:29;32.60;;;13.57;;
15102;SDS011;7652;53.584;9.998;2023-02-22T02:16:34;33.83;;;12.93;;
15102;SDS011;7652;53.584;9.998;2023-02-22T02:19:42;29.00;;;12.93;;
15102;SDS011;7652;53.584;9.998;2023-02-22T02:22:51;28.23;;;12.47;;
15102;SDS011;7652;53.584;9.998;2023-02-22T02:26:20;29.40;;;13.40;;
15102;SDS011;7652;53.584;9.998;2023-02-22T02:29:58;32.37;;;14.27;;
15102;SDS011;7652;53.584;9.998;2023-02-22T02:33:25;32.60;;;13.53;;
15102;SDS011;7652;53.584;9.998;2023-02-22T02:36:34;27.70;;;13.50;;
15102;SDS011;7652;53.584;9.998;2023-02-22T02:39:48;30.13;;;13.10;;
15102;SDS011;7652;53.584;9.998;2023-02-22T02:42:59;28.13;;;12.50;;
15102;SDS011;7652;53.584;9.998;2023-02-22T02:46:07;26.53;;;12.30;;
15102;SDS011;7652;53.584;9.998;2023-02-22T02:49:15;27.90;;;13.57;;
15102;SDS011;7652;53.584;9.998;2023-02-22T02:52:23;28.03;;;12.80;;
15102;SDS011;7652;53.584;9.998;2023-02-22T02:55:28;31.80;;;11.87;;
15102;SDS011;7652;53.584;9.998;2023-02-22T02:58:33;27.30;;;11.50;;
15102;SDS011;7652;53.584;9.998;2023-02-22T03:01:47;22.37;;;10.73;;
15102;SDS011;7652;53.584;9.998;2023-02-22T03:05:01;19.00;;;9.60;;
15102;SDS011;7652;53.584;9.998;2023-02-22T03:08:16;19.57;;;10.20;;
15102;SDS011;7652;53.584;9.998;2023-02-22T03:11:27;21.43;;;10.00;;
15102;SDS011;7652;53.584;9.998;2023-02-22T03:14:37;19.50;;;9.47;;
15102;SDS011;7652;53.584;9.998;2023-02-22T03:17:45;20.20;;;9.50;;
15102;SDS011;7652;53.584;9.998;2023-02-22T03:20:54;19.27;;;10.10;;
15102;SDS011;7652;53.584;9.998;2023-02-22T03:24:05;21.90;;;11.60;;
15102;SDS011;7652;53.584;9.998;2023-02-22T03:27:11;19.77;;;10.10;;
15102;SDS011;7652;53.584;9.998;2023-02-22T03:30:22;17.00;;;9.70;;
15102;SDS011;7652;53.584;9.998;2023-02-22T03:33:34;16.03;;;9.80;;
15102;SDS011;7652;53.584;9.998;2023-02-22T03:36:43;15.93;;;9.70;;
15102;SDS011;7652;53.584;9.998;2023-02-22T03:39:51;15.33;;;9.33;;
15102;SDS011;7652;53.584;9.998;2023-02-22T03:42:58;20.10;;;10.70;;
15102;SDS011;7652;53.584;9.998;2023-02-22T03:46:08;19.13;;;10.47;;
15102;SDS011;7652;53.584;9.998;2023-02-22T03:49:13;18.17;;;10.07;;
15102;SDS011;7652;53.584;9.998;2023-02-22T03:52:22;17.47;;;9.60;;
15102;SDS011;7652;53.584;9.998;2023-02-22T03:55:26;16.17;;;9.40;;
15102;SDS011;7652;53.584;9.998;2023-02-22T03:58:31;22.67;;;11.23;;
15102;SDS011;7652;53.584;9.998;2023-02-22T04:01:36;14.73;;;9.63;;
15102;SDS011;7652;53.584;9.998;2023-02-22T04:04:39;23.03;;;11.07;;
15102;SDS011;7652;53.584;9.998;2023-02-22T04:07:44;18.37;;;10.10;;
15102;SDS011;7652;53.584;9.998;2023-02-22T04:10:47;19.10;;;10.60;;
15102;SDS011;7652;53.584;9.998;2023-02-22T04:13:50;18.13;;;9.47;;
15102;SDS011;7652;53.584;9.998;2023-02-22T04:16:55;24.37;;;11.53;;
15102;SDS011;7652;53.584;9.998;2023-02-22T04:19:58;19.40;;;9.37;;
15102;SDS011;7652;53.584;9.998;2023-02-22T04:23:02;20.50;;;10.93;;
15102;SDS011;7652;53.584;9.998;2023-02-22T04:26:06;17.97;;;9.50;;
15102;SDS011;7652;53.584;9.998;2023-02-22T04:29:08;18.07;;;10.43;;
15102;SDS011;7652;53.584;9.998;2023-02-22T04:32:11;17.70;;;9.83;;
15102;SDS011;7652;53.584;9.998;2023-02-22T04:35:15;15.70;;;9.47;;
15102;SDS011;7652;53.584;9.998;2023-02-22T04:38:19;16.67;;;9.33;;
15102;SDS011;7652;53.584;9.998;2023-02-22T04:41:22;17.53;;;9.93;;
15102;SDS011;7652;53.584;9.998;2023-02-22T04:44:26;21.13;;;11.20;;
15102;SDS011;7652;53.584;9.998;2023-02-22T04:47:29;18.87;;;10.70;;
15102;SDS011;7652;53.584;9.998;2023-02-22T04:50:32;18.67;;;10.10;;
15102;SDS011;7652;53.584;9.998;2023-02-22T04:53:37;18.07;;;10.03;;
15102;SDS011;7652;53.584;9.998;2023-02-22T04:56:41;22.13;;;10.90;;
15102;SDS011;7652;53.584;9.998;2023-02-22T04:59:44;17.83;;;10.53;;
15102;SDS011;7652;53.584;9.998;2023-02-22T05:02:47;15.50;;;9.50;;
15102;SDS011;7652;53.584;9.998;2023-02-22T05:05:51;20.37;;;10.87;;
15102;SDS011;7652;53.584;9.998;2023-02-22T05:08:55;24.50;;;12.93;;
15102;SDS011;7652;53.584;9.998;2023-02-22T05:11:58;23.07;;;11.83;;
15102;SDS011;7652;53.584;9.998;2023-02-22T05:15:01;21.33;;;11.37;;
15102;SDS011;7652;53.584;9.998;2023-02-22T05:18:04;24.83;;;12.30;;
15102;SDS011;7652;53.584;9.998;2023-02-22T05:21:07;24.73;;;11.87;;
15102;SDS011;7652;53.584;9.998;2023-02-22T05:24:12;25.63;;;11.40;;
15102;SDS011;7652;53.584;9.998;2023-02-22T05:27:15;25.40;;;12.20;;
15102;SDS011;7652;53.584;9.998;2023-02-22T05:30:20;24.23;;;12.07;;
15102;SDS011;7652;53.584;9.998;2023-02-22T05:33:25;29.17;;;12.33;;
15102;SDS011;7652;53.584;9.998;2023-02-22T05:36:28;25.10;;;12.03;;
15102;SDS011;7652;53.584;9.998;2023-02-22T05:39:32;32.83;;;12.53;;
15102;SDS011;7652;53.584;9.998;2023-02-22T05:42:35;31.73;;;12.70;;
15102;SDS011;7652;53.584;9.998;2023-02-22T05:45:38;32.83;;;12.83;;
15102;SDS011;7652;53.584;9.998;2023-02-22T05:48:41;34.60;;;13.80;;
15102;SDS011;7652;53.584;9.998;2023-02-22T05:51:44;32.27;;;12.27;;
15102;SDS011;7652;53.584;9.998;2023-02-22T05:54:49;29.30;;;12.63;;
15102;SDS011;7652;53.584;9.998;2023-02-22T05:57:52;26.87;;;12.37;;
15102;SDS011;7652;53.584;9.998;2023-02-22T06:00:55;34.80;;;13.77;;
15102;SDS011;7652;53.584;9.998;2023-02-22T06:03:58;38.17;;;12.90;;
15102;SDS011;7652;53.584;9.998;2023-02-22T06:07:01;34.77;;;14.20;;
15102;SDS011;7652;53.584;9.998;2023-02-22T06:10:06;33.10;;;13.47;;
15102;SDS011;7652;53.584;9.998;2023-02-22T06:13:09;39.53;;;14.03;;
15102;SDS011;7652;53.584;9.998;2023-02-22T06:16:12;33.30;;;13.13;;
15102;SDS011;7652;53.584;9.998;2023-02-22T06:19:15;35.47;;;14.10;;
15102;SDS011;7652;53.584;9.998;2023-02-22T06:22:18;30.63;;;13.47;;
15102;SDS011;7652;53.584;9.998;2023-02-22T06:25:23;35.90;;;13.83;;
15102;SDS011;7652;53.584;9.998;2023-02-22T06:28:27;34.67;;;14.20;;
15102;SDS011;7652;53.584;9.998;2023-02-22T06:31:30;34.47;;;12.77;;
15102;SDS011;7652;53.584;9.998;2023-02-22T06:34:33;33.37;;;13.13;;
15102;SDS011;7652;53.584;9.998;2023-02-22T06:37:36;32.73;;;13.63;;
15102;SDS011;7652;53.584;9.998;2023-02-22T06:40:42;33.20;;;13.00;;
15102;SDS011;7652;53.584;9.998;2023-02-22T06:43:45;32.53;;;13.50;;
15102;SDS011;7652;53.584;9.998;2023-02-22T06:46:49;34.40;;;14.23;;
15102;SDS011;7652;53.584;9.998;2023-02-22T06:49:52;38.20;;;13.90;;
15102;SDS011;7652;53.584;9.998;2023-02-22T06:52:56;33.53;;;13.73;;
15102;SDS011;7652;53.584;9.998;2023-02-22T06:56:01;34.03;;;14.00;;
15102;SDS011;7652;53.584;9.998;2023-02-22T06:59:04;33.97;;;14.13;;
15102;SDS011;7652;53.584;9.998;2023-02-22T07:02:08;34.17;;;12.97;;
15102;SDS011;7652;53.584;9.998;2023-02-22T07:05:11;36.33;;;13.83;;
15102;SDS011;7652;53.584;9.998;2023-02-22T07:08:14;42.13;;;14.53;;
15102;SDS011;7652;53.584;9.998;2023-02-22T07:11:18;36.13;;;13.20;;
15102;SDS011;7652;53.584;9.998;2023-02-22T07:14:21;31.37;;;12.93;;
15102;SDS011;7652;53.584;9.998;2023-02-22T07:17:25;31.33;;;13.20;;
15102;SDS011;7652;53.584;9.998;2023-02-22T07:20:28;28.47;;;12.47;;
15102;SDS011;7652;53.584;9.998;2023-02-22T07:23:32;34.83;;;13.03;;
15102;SDS011;7652;53.584;9.998;2023-02-22T07:26:39;29.60;;;12.50;;
15102;SDS011;7652;53.584;9.998;2023-02-22T07:29:43;29.00;;;12.93;;
15102;SDS011;7652;53.584;9.998;2023-02-22T07:32:47;27.07;;;12.27;;
15102;SDS011;7652;53.584;9.998;2023-02-22T07:35:50;27.37;;;12.03;;
15102;SDS011;7652;53.584;9.998;2023-02-22T07:38:53;25.83;;;11.87;;
15102;SDS011;7652;53.584;9.998;2023-02-22T07:41:57;25.03;;;11.87;;
15102;SDS011;7652;53.584;9.998;2023-02-22T07:45:00;26.87;;;12.23;;
15102;SDS011;7652;53.584;9.998;2023-02-22T07:48:04;22.50;;;11.77;;
15102;SDS011;7652;53.584;9.998;2023-02-22T07:51:07;29.80;;;11.70;;
15102;SDS011;7652;53.584;9.998;2023-02-22T07:54:10;23.97;;;11.63;;
15102;SDS011;7652;53.584;9.998;2023-02-22T07:57:15;23.67;;;12.23;;
15102;SDS011;7652;53.584;9.998;2023-02-22T08:00:21;22.70;;;11.47;;
15102;SDS011;7652;53.584;9.998;2023-02-22T08:03:25;21.53;;;10.60;;
15102;SDS011;7652;53.584;9.998;2023-02-22T08:06:28;21.47;;;11.10;;
15102;SDS011;7652;53.584;9.998;2023-02-22T08:09:32;23.27;;;12.03;;
15102;SDS011;7652;53.584;9.998;2023-02-22T08:12:36;19.60;;;11.33;;
15102;SDS011;7652;53.584;9.998;2023-02-22T08:15:40;22.00;;;11.27;;
15102;SDS011;7652;53.584;9.998;2023-02-22T08:18:44;22.97;;;11.77;;
15102;SDS011;7652;53.584;9.998;2023-02-22T08:21:47;18.73;;;10.77;;
15102;SDS011;7652;53.584;9.998;2023-02-22T08:24:50;20.20;;;10.70;;
15102;SDS011;7652;53.584;9.998;2023-02-22T08:27:57;22.57;;;12.10;;
15102;SDS011;7652;53.584;9.998;2023-02-22T08:31:01;21.30;;;11.00;;
15102;SDS011;7652;53.584;9.998;2023-02-22T08:34:07;20.00;;;11.57;;
15102;SDS011;7652;53.584;9.998;2023-02-22T08:37:10;20.40;;;10.97;;
15102;SDS011;7652;53.584;9.998;2023-02-22T08:40:14;22.30;;;11.87;;
15102;SDS011;7652;53.584;9.998;2023-02-22T08:43:20;17.97;;;10.90;;
15102;SDS011;7652;53.584;9.998;2023-02-22T08:46:23;17.93;;;10.33;;
15102;SDS011;7652;53.584;9.998;2023-02-22T08:49:26;20.00;;;10.93;;
15102;SDS011;7652;53.584;9.998;2023-02-22T08:52:29;16.40;;;9.63;;
15102;SDS011;7652;53.584;9.998;2023-02-22T08:55:33;17.40;;;9.90;;
15102;SDS011;7652;53.584;9.998;2023-02-22T08:58:39;18.50;;;10.43;;
15102;SDS011;7652;53.584;9.998;2023-02-22T09:01:42;17.03;;;9.53;;
15102;SDS011;7652;53.584;9.998;2023-02-22T09:04:45;19.70;;;11.37;;
15102;SDS011;7652;53.584;9.998;2023-02-22T09:07:49;17.20;;;10.70;;
15102;SDS011;7652;53.584;9.998;2023-02-22T09:10:52;18.10;;;11.23;;
15102;SDS011;7652;53.584;9.998;2023-02-22T09:13:56;23.00;;;13.00;;
15102;SDS011;7652;53.584;9.998;2023-02-22T09:16:59;19.67;;;11.27;;
15102;SDS011;7652;53.584;9.998;2023-02-22T09:20:06;24.17;;;12.33;;
15102;SDS011;7652;53.584;9.998;2023-02-22T09:23:10;23.33;;;12.83;;
15102;SDS011;7652;53.584;9.998;2023-02-22T09:26:14;21.07;;;12.37;;
15102;SDS011;7652;53.584;9.998;2023-02-22T09:29:19;22.20;;;12.90;;
15102;SDS011;7652;53.584;9.998;2023-02-22T09:32:24;24.50;;;13.07;;
15102;SDS011;7652;53.584;9.998;2023-02-22T09:35:28;23.63;;;12.87;;
15102;SDS011;7652;53.584;9.998;2023-02-22T09:38:31;24.70;;;14.03;;
15102;SDS011;7652;53.584;9.998;2023-02-22T09:41:35;28.07;;;13.17;;
15102;SDS011;7652;53.584;9.998;2023-02-22T09:44:47;26.57;;;14.50;;
15102;SDS011;7652;53.584;9.998;2023-02-22T09:47:54;21.67;;;12.30;;
15102;SDS011;7652;53.584;9.998;2023-02-22T09:54:37;21.07;;;11.40;;
15102;SDS011;7652;53.584;9.998;2023-02-22T09:57:45;22.53;;;11.70;;
15102;SDS011;7652;53.584;9.998;2023-02-22T10:00:51;22.27;;;10.83;;
15102;SDS011;7652;53.584;9.998;2023-02-22T10:04:00;19.97;;;11.60;;
15102;SDS011;7652;53.584;9.998;2023-02-22T10:07:12;20.40;;;11.37;;
15102;SDS011;7652;53.584;9.998;2023-02-22T10:10:20;19.27;;;11.23;;
15102;SDS011;7652;53.584;9.998;2023-02-22T10:13:35;20.40;;;11.90;;
15102;SDS011;7652;53.584;9.998;2023-02-22T10:16:47;18.83;;;10.93;;
15102;SDS011;7652;53.584;9.998;2023-02-22T10:20:01;21.23;;;11.10;;
15102;SDS011;7652;53.584;9.998;2023-02-22T10:23:16;20.70;;;11.70;;
15102;SDS011;7652;53.584;9.998;2023-02-22T10:26:25;19.43;;;11.60;;
15102;SDS011;7652;53.584;9.998;2023-02-22T10:29:35;20.17;;;11.87;;
15102;SDS011;7652;53.584;9.998;2023-02-22T10:32:43;21.03;;;11.90;;
15102;SDS011;7652;53.584;9.998;2023-02-22T10:35:49;15.73;;;10.63;;
15102;SDS011;7652;53.584;9.998;2023-02-22T10:38:54;19.80;;;10.70;;
15102;SDS011;7652;53.584;9.998;2023-02-22T10:42:01;18.40;;;10.53;;
15102;SDS011;7652;53.584;9.998;2023-02-22T10:45:13;16.20;;;10.00;;
15102;SDS011;7652;53.584;9.998;2023-02-22T10:48:24;16.03;;;9.67;;
15102;SDS011;7652;53.584;9.998;2023-02-22T10:51:30;18.20;;;10.20;;
15102;SDS011;7652;53.584;9.998;2023-02-22T10:54:33;17.77;;;10.73;;
15102;SDS011;7652;53.584;9.998;2023-02-22T10:57:41;19.33;;;11.20;;
15102;SDS011;7652;53.584;9.998;2023-02-22T11:00:47;17.47;;;11.40;;
15102;SDS011;7652;53.584;9.998;2023-02-22T11:03:57;15.30;;;10.43;;
15102;SDS011;7652;53.584;9.998;2023-02-22T11:07:08;14.73;;;10.07;;
15102;SDS011;7652;53.584;9.998;2023-02-22T11:10:21;16.17;;;10.93;;
15102;SDS011;7652;53.584;9.998;2023-02-22T11:13:32;16.93;;;11.33;;
15102;SDS011;7652;53.584;9.998;2023-02-22T11:16:40;20.33;;;12.40;;
15102;SDS011;7652;53.584;9.998;2023-02-22T11:19:49;15.37;;;11.67;;
15102;SDS011;7652;53.584;9.998;2023-02-22T11:22:53;15.90;;;10.13;;
15102;SDS011;7652;53.584;9.998;2023-02-22T11:26:02;14.97;;;10.83;;
15102;SDS011;7652;53.584;9.998;2023-02-22T11:29:10;16.53;;;10.93;;
15102;SDS011;7652;53.584;9.998;2023-02-22T11:32:18;15.63;;;10.93;;
15102;SDS011;7652;53.584;9.998;2023-02-22T11:35:35;14.70;;;10.50;;
15102;SDS011;7652;53.584;9.998;2023-02-22T11:38:51;12.63;;;10.13;;
15102;SDS011;7652;53.584;9.998;2023-02-22T11:41:59;15.73;;;10.60;;
15102;SDS011;7652;53.584;9.998;2023-02-22T11:45:21;14.90;;;10.77;;
15102;SDS011;7652;53.584;9.998;2023-02-22T11:48:25;15.70;;;10.63;;
15102;SDS011;7652;53.584;9.998;2023-02-22T11:51:36;15.17;;;10.33;;
15102;SDS011;7652;53.584;9.998;2023-02-22T11:54:54;13.87;;;9.57;;
15102;SDS011;7652;53.584;9.998;2023-02-22T11:58:17;13.03;;;9.47;;
15102;SDS011;7652;53.584;9.998;2023-02-22T12:01:38;15.53;;;10.80;;
15102;SDS011;7652;53.584;9.998;2023-02-22T12:04:51;14.73;;;10.17;;
15102;SDS011;7652;53.584;9.998;2023-02-22T12:08:10;15.80;;;10.43;;
15102;SDS011;7652;53.584;9.998;2023-02-22T12:11:22;13.87;;;10.30;;
15102;SDS011;7652;53.584;9.998;2023-02-22T12:14:29;14.77;;;9.93;;
15102;SDS011;7652;53.584;9.998;2023-02-22T12:17:46;16.43;;;10.23;;
15102;SDS011;7652;53.584;9.998;2023-02-22T12:21:01;14.13;;;9.70;;
15102;SDS011;7652;53.584;9.998;2023-02-22T12:24:11;16.17;;;11.70;;
15102;SDS011;7652;53.584;9.998;2023-02-22T12:27:19;13.87;;;10.60;;
15102;SDS011;7652;53.584;9.998;2023-02-22T12:30:29;14.17;;;10.17;;
15102;SDS011;7652;53.584;9.998;2023-02-22T12:33:38;12.93;;;9.50;;
15102;SDS011;7652;53.584;9.998;2023-02-22T12:36:48;14.53;;;9.53;;
15102;SDS011;7652;53.584;9.998;2023-02-22T12:39:57;12.37;;;9.27;;
15102;SDS011;7652;53.584;9.998;2023-02-22T12:43:09;13.23;;;9.40;;
15102;SDS011;7652;53.584;9.998;2023-02-22T12:46:18;13.93;;;10.50;;
15102;SDS011;7652;53.584;9.998;2023-02-22T12:49:25;14.10;;;10.17;;
15102;SDS011;7652;53.584;9.998;2023-02-22T12:52:36;13.90;;;10.30;;
15102;SDS011;7652;53.584;9.998;2023-02-22T12:55:48;13.50;;;9.70;;
15102;SDS011;7652;53.584;9.998;2023-02-22T12:58:58;14.63;;;10.23;;
15102;SDS011;7652;53.584;9.998;2023-02-22T13:02:08;14.13;;;9.73;;
15102;SDS011;7652;53.584;9.998;2023-02-22T13:05:17;13.43;;;9.47;;
15102;SDS011;7652;53.584;9.998;2023-02-22T13:08:23;14.30;;;9.50;;
15102;SDS011;7652;53.584;9.998;2023-02-22T13:11:34;15.60;;;10.30;;
15102;SDS011;7652;53.584;9.998;2023-02-22T13:14:49;13.87;;;9.60;;
15102;SDS011;7652;53.584;9.998;2023-02-22T13:18:01;14.27;;;10.23;;
15102;SDS011;7652;53.584;9.998;2023-02-22T13:21:13;13.60;;;8.77;;
15102;SDS011;7652;53.584;9.998;2023-02-22T13:24:22;12.57;;;9.53;;
15102;SDS011;7652;53.584;9.998;2023-02-22T13:27:32;13.53;;;8.87;;
15102;SDS011;7652;53.584;9.998;2023-02-22T13:30:41;13.87;;;8.33;;
15102;SDS011;7652;53.584;9.998;2023-02-22T13:33:55;12.57;;;9.37;;
15102;SDS011;7652;53.584;9.998;2023-02-22T13:37:10;11.83;;;8.37;;
15102;SDS011;7652;53.584;9.998;2023-02-22T13:40:32;10.93;;;7.63;;
15102;SDS011;7652;53.584;9.998;2023-02-22T13:44:12;11.23;;;8.43;;
15102;SDS011;7652;53.584;9.998;2023-02-22T13:51:17;11.23;;;8.00;;
15102;SDS011;7652;53.584;9.998;2023-02-22T13:54:39;13.07;;;8.20;;
15102;SDS011;7652;53.584;9.998;2023-02-22T13:57:45;11.20;;;8.30;;
15102;SDS011;7652;53.584;9.998;2023-02-22T14:00:53;10.83;;;7.53;;
15102;SDS011;7652;53.584;9.998;2023-02-22T14:04:06;11.70;;;7.57;;
15102;SDS011;7652;53.584;9.998;2023-02-22T14:07:44;11.33;;;7.87;;
15102;SDS011;7652;53.584;9.998;2023-02-22T14:10:49;12.03;;;8.63;;
15102;SDS011;7652;53.584;9.998;2023-02-22T14:14:11;13.10;;;7.90;;
15102;SDS011;7652;53.584;9.998;2023-02-22T14:17:25;10.97;;;7.80;;
15102;SDS011;7652;53.584;9.998;2023-02-22T14:20:31;11.40;;;7.40;;
15102;SDS011;7652;53.584;9.998;2023-02-22T14:23:37;12.90;;;8.00;;
15102;SDS011;7652;53.584;9.998;2023-02-22T14:26:52;11.27;;;7.60;;
15102;SDS011;7652;53.584;9.998;2023-02-22T14:29:57;11.30;;;7.53;;
15102;SDS011;7652;53.584;9.998;2023-02-22T14:33:05;10.50;;;7.80;;
15102;SDS011;7652;53.584;9.998;2023-02-22T14:36:47;11.37;;;7.57;;
15102;SDS011;7652;53.584;9.998;2023-02-22T14:39:56;11.17;;;7.60;;
15102;SDS011;7652;53.584;9.998;2023-02-22T14:43:13;12.97;;;8.17;;
15102;SDS011;7652;53.584;9.998;2023-02-22T14:46:21;11.23;;;7.60;;
15102;SDS011;7652;53.584;9.998;2023-02-22T14:49:31;14.50;;;7.90;;
15102;SDS011;7652;53.584;9.998;2023-02-22T14:52:38;12.50;;;8.03;;
15102;SDS011;7652;53.584;9.998;2023-02-22T14:55:45;12.03;;;7.30;;
15102;SDS011;7652;53.584;9.998;2023-02-22T14:58:54;9.77;;;8.00;;
15102;SDS011;7652;53.584;9.998;2023-02-22T15:02:03;11.23;;;7.63;;
15102;SDS011;7652;53.584;9.998;2023-02-22T15:05:14;12.73;;;8.40;;
15102;SDS011;7652;53.584;9.998;2023-02-22T15:08:19;12.83;;;8.03;;
15102;SDS011;7652;53.584;9.998;2023-02-22T15:11:28;11.97;;;8.00;;
15102;SDS011;7652;53.584;9.998;2023-02-22T15:14:34;11.60;;;7.90;;
15102;SDS011;7652;53.584;9.998;2023-02-22T15:17:39;11.93;;;8.23;;
15102;SDS011;7652;53.584;9.998;2023-02-22T15:20:44;11.97;;;8.37;;
15102;SDS011;7652;53.584;9.998;2023-02-22T15:23:51;14.57;;;8.70;;
15102;SDS011;7652;53.584;9.998;2023-02-22T15:27:00;11.47;;;7.93;;
15102;SDS011;7652;53.584;9.998;2023-02-22T15:30:07;11.43;;;7.73;;
15102;SDS011;7652;53.584;9.998;2023-02-22T15:33:18;13.73;;;8.37;;
15102;SDS011;7652;53.584;9.998;2023-02-22T15:36:26;13.87;;;8.90;;
15102;SDS011;7652;53.584;9.998;2023-02-22T15:39:32;11.60;;;8.03;;
15102;SDS011;7652;53.584;9.998;2023-02-22T15:42:45;13.40;;;9.40;;
15102;SDS011;7652;53.584;9.998;2023-02-22T15:45:49;11.30;;;8.03;;
15102;SDS011;7652;53.584;9.998;2023-02-22T15:49:06;16.03;;;9.23;;
15102;SDS011;7652;53.584;9.998;2023-02-22T15:52:22;15.93;;;9.73;;
15102;SDS011;7652;53.584;9.998;2023-02-22T15:55:28;15.03;;;9.40;;
15102;SDS011;7652;53.584;9.998;2023-02-22T15:58:34;14.83;;;9.30;;
15102;SDS011;7652;53.584;9.998;2023-02-22T16:01:39;15.63;;;9.57;;
15102;SDS011;7652;53.584;9.998;2023-02-22T16:04:44;13.37;;;8.80;;
15102;SDS011;7652;53.584;9.998;2023-02-22T16:08:01;12.30;;;9.23;;
15102;SDS011;7652;53.584;9.998;2023-02-22T16:11:04;14.10;;;9.23;;
15102;SDS011;7652;53.584;9.998;2023-02-22T16:14:23;12.77;;;8.97;;
15102;SDS011;7652;53.584;9.998;2023-02-22T16:17:33;11.67;;;8.77;;
15102;SDS011;7652;53.584;9.998;2023-02-22T16:20:37;14.27;;;8.97;;
15102;SDS011;7652;53.584;9.998;2023-02-22T16:23:46;14.20;;;8.83;;
15102;SDS011;7652;53.584;9.998;2023-02-22T16:27:00;12.47;;;8.70;;
15102;SDS011;7652;53.584;9.998;2023-02-22T16:30:06;16.63;;;9.57;;
15102;SDS011;7652;53.584;9.998;2023-02-22T16:33:29;13.03;;;9.40;;
15102;SDS011;7652;53.584;9.998;2023-02-22T16:36:38;13.90;;;8.37;;
15102;SDS011;7652;53.584;9.998;2023-02-22T16:39:44;12.93;;;8.97;;
15102;SDS011;7652;53.584;9.998;2023-02-22T16:42:47;12.53;;;9.17;;
15102;SDS011;7652;53.584;9.998;2023-02-22T16:45:51;11.30;;;8.30;;
15102;SDS011;7652;53.584;9.998;2023-02-22T16:48:55;14.67;;;9.27;;
15102;SDS011;7652;53.584;9.998;2023-02-22T16:52:04;13.87;;;9.00;;
15102;SDS011;7652;53.584;9.998;2023-02-22T16:55:10;15.37;;;8.97;;
15102;SDS011;7652;53.584;9.998;2023-02-22T16:58:16;15.50;;;9.13;;
15102;SDS011;7652;53.584;9.998;2023-02-22T17:01:20;15.30;;;8.40;;
15102;SDS011;7652;53.584;9.998;2023-02-22T17:04:24;14.77;;;8.77;;
15102;SDS011;7652;53.584;9.998;2023-02-22T17:07:29;14.10;;;8.77;;
15102;SDS011;7652;53.584;9.998;2023-02-22T17:10:34;15.83;;;9.67;;
15102;SDS011;7652;53.584;9.998;2023-02-22T17:13:37;15.93;;;10.17;;
15102;SDS011;7652;53.584;9.998;2023-02-22T17:16:41;14.40;;;9.50;;
15102;SDS011;7652;53.584;9.998;2023-02-22T17:19:47;16.77;;;9.77;;
15102;SDS011;7652;53.584;9.998;2023-02-22T17:22:50;15.17;;;9.93;;
15102;SDS011;7652;53.584;9.998;2023-02-22T17:25:54;14.60;;;10.07;;
15102;SDS011;7652;53.584;9.998;2023-02-22T17:29:00;15.87;;;9.97;;
15102;SDS011;7652;53.584;9.998;2023-02-22T17:32:03;16.37;;;9.87;;
15102;SDS011;7652;53.584;9.998;2023-02-22T17:35:06;15.87;;;9.37;;
15102;SDS011;7652;53.584;9.998;2023-02-22T17:38:09;16.37;;;10.37;;
15102;SDS011;7652;53.584;9.998;2023-02-22T17:41:14;16.80;;;9.80;;
15102;SDS011;7652;53.584;9.998;2023-02-22T17:44:17;14.30;;;9.33;;
15102;SDS011;7652;53.584;9.998;2023-02-22T17:47:20;16.63;;;10.50;;
15102;SDS011;7652;53.584;9.998;2023-02-22T17:50:23;21.13;;;10.43;;
15102;SDS011;7652;53.584;9.998;2023-02-22T17:53:27;17.60;;;10.63;;
15102;SDS011;7652;53.584;9.998;2023-02-22T17:56:32;18.70;;;10.53;;
15102;SDS011;7652;53.584;9.998;2023-02-22T17:59:35;16.20;;;10.63;;
15102;SDS011;7652;53.584;9.998;2023-02-22T18:02:41;16.53;;;9.53;;
15102;SDS011;7652;53.584;9.998;2023-02-22T18:05:46;15.27;;;9.60;;
15102;SDS011;7652;53.584;9.998;2023-02-22T18:08:50;15.13;;;8.97;;
15102;SDS011;7652;53.584;9.998;2023-02-22T18:11:58;16.17;;;9.50;;
15102;SDS011;7652;53.584;9.998;2023-02-22T18:15:01;14.60;;;9.20;;
15102;SDS011;7652;53.584;9.998;2023-02-22T18:18:04;13.90;;;8.47;;
15102;SDS011;7652;53.584;9.998;2023-02-22T18:21:07;13.73;;;9.93;;
15102;SDS011;7652;53.584;9.998;2023-02-22T18:24:10;17.37;;;9.37;;
15102;SDS011;7652;53.584;9.998;2023-02-22T18:27:14;14.40;;;9.00;;
15102;SDS011;7652;53.584;9.998;2023-02-22T18:30:18;13.67;;;8.77;;
15102;SDS011;7652;53.584;9.998;2023-02-22T18:33:21;11.60;;;8.10;;
15102;SDS011;7652;53.584;9.998;2023-02-22T18:36:24;12.13;;;8.20;;
15102;SDS011;7652;53.584;9.998;2023-02-22T18:39:27;12.43;;;8.70;;
15102;SDS011;7652;53.584;9.998;2023-02-22T18:42:36;14.33;;;8.77;;